sensor_id;sensor_type;location;lat;lon;timestamp;P1;durP1;ratioP1;P2;durP2;ratioP2
9080;SDS011;13509;50.760;6.080;2022-08-01T15:34:22;2.27;;;1.87;;
9080;SDS011;13509;50.760;6.080;2022-08-01T15:36:51;5.43;;;2.10;;
9080;SDS011;13509;50.760;6.080;2022-08-01T15:39:19;6.20;;;2.00;;
9080;SDS011;13509;50.760;6.080;2022-08-01T15:41:47;2.30;;;2.10;;
9080;SDS011;13509;50.760;6.080;2022-08-01T15:44:16;2.77;;;1.70;;
9080;SDS011;13509;50.760;6.080;2022-08-01T15:46:45;6.17;;;1.90;;
9080;SDS011;13509;50.760;6.080;2022-08-01T15:49:14;3.53;;;1.90;;
9080;SDS011;13509;50.760;6.080;2022-08-01T15:51:44;3.37;;;2.37;;
9080;SDS011;13509;50.760;6.080;2022-08-01T15:54:12;2.73;;;1.80;;
9080;SDS011;13509;50.760;6.080;2022-08-01T15:56:40;2.17;;;1.97;;
9080;SDS011;13509;50.760;6.080;2022-08-01T15:59:08;3.03;;;2.23;;
9080;SDS011;13509;50.760;6.080;2022-08-01T16:01:37;2.90;;;2.00;;
9080;SDS011;13509;50.760;6.080;2022-08-01T16:04:05;2.17;;;1.97;;
9080;SDS011;13509;50.760;6.080;2022-08-01T16:06:34;2.80;;;1.90;;
9080;SDS011;13509;50.760;6.080;2022-08-01T16:09:04;4.90;;;2.20;;
9080;SDS011;13509;50.760;6.080;2022-08-01T16:11:43;4.33;;;2.60;;
9080;SDS011;13509;50.760;6.080;2022-08-01T16:14:16;3.23;;;2.00;;
9080;SDS011;13509;50.760;6.080;2022-08-01T16:16:46;3.60;;;1.87;;
9080;SDS011;13509;50.760;6.080;2022-08-01T16:19:14;2.67;;;1.93;;
9080;SDS011;13509;50.760;6.080;2022-08-01T16:21:44;3.07;;;2.33;;
9080;SDS011;13509;50.760;6.080;2022-08-01T16:24:14;2.80;;;2.10;;
9080;SDS011;13509;50.760;6.080;2022-08-01T16:26:43;3.57;;;1.87;;
9080;SDS011;13509;50.760;6.080;2022-08-01T16:29:11;3.43;;;2.10;;
9080;SDS011;13509;50.760;6.080;2022-08-01T16:31:39;1.83;;;1.70;;
9080;SDS011;13509;50.760;6.080;2022-08-01T16:34:22;2.93;;;1.90;;
9080;SDS011;13509;50.760;6.080;2022-08-01T16:36:50;2.87;;;1.70;;
9080;SDS011;13509;50.760;6.080;2022-08-01T16:39:21;2.70;;;2.00;;
9080;SDS011;13509;50.760;6.080;2022-08-01T16:41:50;2.90;;;1.70;;
9080;SDS011;13509;50.760;6.080;2022-08-01T16:44:20;1.93;;;1.70;;
9080;SDS011;13509;50.760;6.080;2022-08-01T16:46:59;1.73;;;1.63;;
9080;SDS011;13509;50.760;6.080;2022-08-01T16:49:27;2.00;;;1.80;;
9080;SDS011;13509;50.760;6.080;2022-08-01T16:51:57;2.30;;;1.60;;
9080;SDS011;13509;50.760;6.080;2022-08-01T16:54:26;2.13;;;1.80;;
9080;SDS011;13509;50.760;6.080;2022-08-01T16:56:55;2.77;;;1.83;;
9080;SDS011;13509;50.760;6.080;2022-08-01T16:59:34;3.73;;;2.17;;
9080;SDS011;13509;50.760;6.080;2022-08-01T17:02:07;2.33;;;1.70;;
9080;SDS011;13509;50.760;6.080;2022-08-01T17:04:35;1.83;;;1.60;;
9080;SDS011;13509;50.760;6.080;2022-08-01T17:07:03;3.60;;;2.10;;
9080;SDS011;13509;50.760;6.080;2022-08-01T17:09:33;2.57;;;1.90;;
9080;SDS011;13509;50.760;6.080;2022-08-01T17:12:08;3.00;;;1.63;;
9080;SDS011;13509;50.760;6.080;2022-08-01T17:14:39;2.33;;;1.60;;
9080;SDS011;13509;50.760;6.080;2022-08-01T17:17:08;2.63;;;1.60;;
9080;SDS011;13509;50.760;6.080;2022-08-01T17:19:36;7.30;;;2.13;;
9080;SDS011;13509;50.760;6.080;2022-08-01T17:22:05;2.17;;;1.80;;
9080;SDS011;13509;50.760;6.080;2022-08-01T17:24:34;1.87;;;1.63;;
9080;SDS011;13509;50.760;6.080;2022-08-01T17:27:03;2.30;;;1.60;;
9080;SDS011;13509;50.760;6.080;2022-08-01T17:29:38;4.67;;;1.67;;
9080;SDS011;13509;50.760;6.080;2022-08-01T17:32:09;4.60;;;1.90;;
9080;SDS011;13509;50.760;6.080;2022-08-01T17:34:38;4.70;;;2.20;;
9080;SDS011;13509;50.760;6.080;2022-08-01T17:37:06;6.33;;;2.03;;
9080;SDS011;13509;50.760;6.080;2022-08-01T17:39:36;2.30;;;1.67;;
9080;SDS011;13509;50.760;6.080;2022-08-01T17:42:06;4.63;;;1.60;;
9080;SDS011;13509;50.760;6.080;2022-08-01T17:44:34;1.73;;;1.63;;
9080;SDS011;13509;50.760;6.080;2022-08-01T17:47:02;1.80;;;1.53;;
9080;SDS011;13509;50.760;6.080;2022-08-01T17:49:31;2.77;;;1.67;;
9080;SDS011;13509;50.760;6.080;2022-08-01T17:52:19;2.13;;;1.63;;
9080;SDS011;13509;50.760;6.080;2022-08-01T17:54:52;2.43;;;1.83;;
9080;SDS011;13509;50.760;6.080;2022-08-01T17:57:21;2.20;;;1.97;;
9080;SDS011;13509;50.760;6.080;2022-08-01T17:59:49;1.80;;;1.60;;
9080;SDS011;13509;50.760;6.080;2022-08-01T18:02:17;3.60;;;2.20;;
9080;SDS011;13509;50.760;6.080;2022-08-01T18:04:45;2.07;;;1.57;;
9080;SDS011;13509;50.760;6.080;2022-08-01T18:07:16;5.27;;;2.23;;
9080;SDS011;13509;50.760;6.080;2022-08-01T18:09:44;4.17;;;2.00;;
9080;SDS011;13509;50.760;6.080;2022-08-01T18:12:14;3.80;;;2.33;;
9080;SDS011;13509;50.760;6.080;2022-08-01T18:14:43;3.97;;;2.10;;
9080;SDS011;13509;50.760;6.080;2022-08-01T18:17:12;3.77;;;3.17;;
9080;SDS011;13509;50.760;6.080;2022-08-01T18:19:41;6.77;;;2.53;;
9080;SDS011;13509;50.760;6.080;2022-08-01T18:22:12;3.77;;;2.17;;
9080;SDS011;13509;50.760;6.080;2022-08-01T18:24:58;3.17;;;2.23;;
9080;SDS011;13509;50.760;6.080;2022-08-01T18:27:35;4.03;;;2.27;;
9080;SDS011;13509;50.760;6.080;2022-08-01T18:30:23;4.03;;;1.93;;
9080;SDS011;13509;50.760;6.080;2022-08-01T18:32:52;4.80;;;1.80;;
9080;SDS011;13509;50.760;6.080;2022-08-01T18:35:21;2.13;;;1.90;;
9080;SDS011;13509;50.760;6.080;2022-08-01T18:38:09;2.20;;;1.73;;
9080;SDS011;13509;50.760;6.080;2022-08-01T18:40:38;4.07;;;2.20;;
9080;SDS011;13509;50.760;6.080;2022-08-01T18:43:08;5.70;;;2.17;;
9080;SDS011;13509;50.760;6.080;2022-08-01T18:45:36;3.33;;;2.03;;
9080;SDS011;13509;50.760;6.080;2022-08-01T18:48:08;3.83;;;2.10;;
9080;SDS011;13509;50.760;6.080;2022-08-01T18:50:36;3.40;;;1.97;;
9080;SDS011;13509;50.760;6.080;2022-08-01T18:53:05;3.07;;;1.73;;
9080;SDS011;13509;50.760;6.080;2022-08-01T18:55:34;5.80;;;1.90;;
9080;SDS011;13509;50.760;6.080;2022-08-01T18:58:02;3.93;;;2.07;;
9080;SDS011;13509;50.760;6.080;2022-08-01T19:00:32;2.10;;;1.80;;
9080;SDS011;13509;50.760;6.080;2022-08-01T19:03:00;4.63;;;2.27;;
9080;SDS011;13509;50.760;6.080;2022-08-01T19:05:29;4.67;;;2.00;;
9080;SDS011;13509;50.760;6.080;2022-08-01T19:08:01;2.17;;;1.90;;
9080;SDS011;13509;50.760;6.080;2022-08-01T19:10:32;2.77;;;1.90;;
9080;SDS011;13509;50.760;6.080;2022-08-01T19:13:01;7.70;;;2.60;;
9080;SDS011;13509;50.760;6.080;2022-08-01T19:15:29;3.63;;;2.10;;
9080;SDS011;13509;50.760;6.080;2022-08-01T19:17:59;2.40;;;1.87;;
9080;SDS011;13509;50.760;6.080;2022-08-01T19:20:28;5.03;;;2.20;;
9080;SDS011;13509;50.760;6.080;2022-08-01T19:22:56;5.70;;;2.40;;
9080;SDS011;13509;50.760;6.080;2022-08-01T19:25:24;3.90;;;2.50;;
9080;SDS011;13509;50.760;6.080;2022-08-01T19:27:53;4.37;;;2.17;;
9080;SDS011;13509;50.760;6.080;2022-08-01T19:30:23;6.63;;;2.60;;
9080;SDS011;13509;50.760;6.080;2022-08-01T19:32:51;5.80;;;1.87;;
9080;SDS011;13509;50.760;6.080;2022-08-01T19:35:22;3.17;;;2.43;;
9080;SDS011;13509;50.760;6.080;2022-08-01T19:37:51;5.33;;;2.50;;
9080;SDS011;13509;50.760;6.080;2022-08-01T19:40:19;4.73;;;2.10;;
9080;SDS011;13509;50.760;6.080;2022-08-01T19:42:53;2.80;;;2.23;;
9080;SDS011;13509;50.760;6.080;2022-08-01T19:45:22;3.37;;;2.10;;
9080;SDS011;13509;50.760;6.080;2022-08-01T19:47:50;4.57;;;2.27;;
9080;SDS011;13509;50.760;6.080;2022-08-01T19:50:24;3.50;;;2.37;;
9080;SDS011;13509;50.760;6.080;2022-08-01T19:52:52;2.47;;;2.03;;
9080;SDS011;13509;50.760;6.080;2022-08-01T19:55:22;4.37;;;2.70;;
9080;SDS011;13509;50.760;6.080;2022-08-01T19:57:51;8.27;;;2.30;;
9080;SDS011;13509;50.760;6.080;2022-08-01T20:00:39;4.07;;;2.47;;
9080;SDS011;13509;50.760;6.080;2022-08-01T20:03:08;4.97;;;2.67;;
9080;SDS011;13509;50.760;6.080;2022-08-01T20:05:38;4.87;;;2.63;;
9080;SDS011;13509;50.760;6.080;2022-08-01T20:08:06;2.97;;;2.30;;
9080;SDS011;13509;50.760;6.080;2022-08-01T20:10:35;5.03;;;2.37;;
9080;SDS011;13509;50.760;6.080;2022-08-01T20:13:04;3.97;;;2.93;;
9080;SDS011;13509;50.760;6.080;2022-08-01T20:15:34;3.40;;;2.40;;
9080;SDS011;13509;50.760;6.080;2022-08-01T20:18:03;4.53;;;2.43;;
9080;SDS011;13509;50.760;6.080;2022-08-01T20:20:32;3.77;;;2.60;;
9080;SDS011;13509;50.760;6.080;2022-08-01T20:23:02;3.10;;;2.30;;
9080;SDS011;13509;50.760;6.080;2022-08-01T20:25:34;7.10;;;3.00;;
9080;SDS011;13509;50.760;6.080;2022-08-01T20:28:06;6.17;;;2.90;;
9080;SDS011;13509;50.760;6.080;2022-08-01T20:30:35;4.17;;;2.60;;
9080;SDS011;13509;50.760;6.080;2022-08-01T20:33:04;6.17;;;3.17;;
9080;SDS011;13509;50.760;6.080;2022-08-01T20:35:34;4.10;;;2.50;;
9080;SDS011;13509;50.760;6.080;2022-08-01T20:38:20;4.03;;;2.87;;
9080;SDS011;13509;50.760;6.080;2022-08-01T20:40:49;4.60;;;2.70;;
9080;SDS011;13509;50.760;6.080;2022-08-01T20:43:18;6.17;;;2.80;;
9080;SDS011;13509;50.760;6.080;2022-08-01T20:45:47;4.87;;;2.83;;
9080;SDS011;13509;50.760;6.080;2022-08-01T20:48:17;3.93;;;2.60;;
9080;SDS011;13509;50.760;6.080;2022-08-01T20:50:45;4.10;;;2.63;;
9080;SDS011;13509;50.760;6.080;2022-08-01T20:53:34;6.67;;;2.70;;
9080;SDS011;13509;50.760;6.080;2022-08-01T20:56:06;6.10;;;2.60;;
9080;SDS011;13509;50.760;6.080;2022-08-01T20:58:36;3.63;;;2.23;;
9080;SDS011;13509;50.760;6.080;2022-08-01T21:01:07;4.30;;;2.83;;
9080;SDS011;13509;50.760;6.080;2022-08-01T21:03:38;5.10;;;2.60;;
9080;SDS011;13509;50.760;6.080;2022-08-01T21:06:11;3.27;;;2.50;;
9080;SDS011;13509;50.760;6.080;2022-08-01T21:08:42;5.17;;;2.70;;
9080;SDS011;13509;50.760;6.080;2022-08-01T21:11:12;4.67;;;2.70;;
9080;SDS011;13509;50.760;6.080;2022-08-01T21:13:41;4.27;;;2.77;;
9080;SDS011;13509;50.760;6.080;2022-08-01T21:16:11;6.70;;;2.80;;
9080;SDS011;13509;50.760;6.080;2022-08-01T21:18:50;4.57;;;3.10;;
9080;SDS011;13509;50.760;6.080;2022-08-01T21:21:42;3.67;;;2.70;;
9080;SDS011;13509;50.760;6.080;2022-08-01T21:24:17;3.77;;;2.50;;
9080;SDS011;13509;50.760;6.080;2022-08-01T21:26:45;4.23;;;3.40;;
9080;SDS011;13509;50.760;6.080;2022-08-01T21:29:14;3.87;;;2.70;;
9080;SDS011;13509;50.760;6.080;2022-08-01T21:31:43;4.33;;;2.90;;
9080;SDS011;13509;50.760;6.080;2022-08-01T21:34:12;6.20;;;2.90;;
9080;SDS011;13509;50.760;6.080;2022-08-01T21:36:42;4.43;;;3.20;;
9080;SDS011;13509;50.760;6.080;2022-08-01T21:39:11;3.67;;;2.73;;
9080;SDS011;13509;50.760;6.080;2022-08-01T21:41:41;5.93;;;2.93;;
9080;SDS011;13509;50.760;6.080;2022-08-01T21:44:29;3.20;;;2.90;;
9080;SDS011;13509;50.760;6.080;2022-08-01T21:46:58;4.97;;;2.93;;
9080;SDS011;13509;50.760;6.080;2022-08-01T21:49:27;4.77;;;3.10;;
9080;SDS011;13509;50.760;6.080;2022-08-01T21:51:56;3.77;;;2.90;;
9080;SDS011;13509;50.760;6.080;2022-08-01T21:54:27;4.70;;;2.77;;
9080;SDS011;13509;50.760;6.080;2022-08-01T21:57:00;5.10;;;3.37;;
9080;SDS011;13509;50.760;6.080;2022-08-01T21:59:31;3.90;;;3.37;;
9080;SDS011;13509;50.760;6.080;2022-08-01T22:02:06;6.70;;;2.90;;
9080;SDS011;13509;50.760;6.080;2022-08-01T22:04:37;3.40;;;2.93;;
9080;SDS011;13509;50.760;6.080;2022-08-01T22:07:07;4.60;;;3.17;;
9080;SDS011;13509;50.760;6.080;2022-08-01T22:09:37;4.10;;;2.97;;
9080;SDS011;13509;50.760;6.080;2022-08-01T22:12:07;5.20;;;2.93;;
9080;SDS011;13509;50.760;6.080;2022-08-01T22:14:43;3.93;;;2.80;;
9080;SDS011;13509;50.760;6.080;2022-08-01T22:17:12;3.73;;;2.90;;
9080;SDS011;13509;50.760;6.080;2022-08-01T22:19:41;3.77;;;3.17;;
9080;SDS011;13509;50.760;6.080;2022-08-01T22:22:14;4.07;;;2.83;;
9080;SDS011;13509;50.760;6.080;2022-08-01T22:25:03;4.60;;;2.80;;
9080;SDS011;13509;50.760;6.080;2022-08-01T22:27:33;7.17;;;3.60;;
9080;SDS011;13509;50.760;6.080;2022-08-01T22:30:21;4.37;;;3.30;;
9080;SDS011;13509;50.760;6.080;2022-08-01T22:32:54;5.27;;;3.77;;
9080;SDS011;13509;50.760;6.080;2022-08-01T22:35:42;4.60;;;3.40;;
9080;SDS011;13509;50.760;6.080;2022-08-01T22:38:11;4.37;;;3.57;;
9080;SDS011;13509;50.760;6.080;2022-08-01T22:40:42;3.87;;;3.27;;
9080;SDS011;13509;50.760;6.080;2022-08-01T22:43:16;5.60;;;3.43;;
9080;SDS011;13509;50.760;6.080;2022-08-01T22:45:45;3.70;;;3.40;;
9080;SDS011;13509;50.760;6.080;2022-08-01T22:48:17;5.73;;;3.20;;
9080;SDS011;13509;50.760;6.080;2022-08-01T22:50:46;5.07;;;3.40;;
9080;SDS011;13509;50.760;6.080;2022-08-01T22:53:20;5.80;;;3.10;;
9080;SDS011;13509;50.760;6.080;2022-08-01T22:55:51;5.23;;;3.37;;
9080;SDS011;13509;50.760;6.080;2022-08-01T22:58:27;3.57;;;3.20;;
9080;SDS011;13509;50.760;6.080;2022-08-01T23:00:58;4.27;;;3.20;;
9080;SDS011;13509;50.760;6.080;2022-08-01T23:03:28;3.70;;;3.30;;
9080;SDS011;13509;50.760;6.080;2022-08-01T23:05:59;5.83;;;3.60;;
9080;SDS011;13509;50.760;6.080;2022-08-01T23:08:29;5.13;;;3.23;;
9080;SDS011;13509;50.760;6.080;2022-08-01T23:10:58;5.00;;;3.80;;
9080;SDS011;13509;50.760;6.080;2022-08-01T23:13:28;3.97;;;3.43;;
9080;SDS011;13509;50.760;6.080;2022-08-01T23:15:57;7.07;;;3.53;;
9080;SDS011;13509;50.760;6.080;2022-08-01T23:18:26;3.53;;;3.23;;
9080;SDS011;13509;50.760;6.080;2022-08-01T23:20:56;4.03;;;3.50;;
9080;SDS011;13509;50.760;6.080;2022-08-01T23:23:24;4.63;;;3.20;;
9080;SDS011;13509;50.760;6.080;2022-08-01T23:25:57;4.70;;;3.50;;
9080;SDS011;13509;50.760;6.080;2022-08-01T23:28:26;5.33;;;3.67;;
9080;SDS011;13509;50.760;6.080;2022-08-01T23:30:56;7.90;;;3.33;;
9080;SDS011;13509;50.760;6.080;2022-08-01T23:33:25;3.60;;;3.27;;
9080;SDS011;13509;50.760;6.080;2022-08-01T23:35:53;3.70;;;3.40;;
9080;SDS011;13509;50.760;6.080;2022-08-01T23:38:22;3.70;;;3.40;;
9080;SDS011;13509;50.760;6.080;2022-08-01T23:40:50;7.47;;;3.70;;
9080;SDS011;13509;50.760;6.080;2022-08-01T23:43:18;4.53;;;3.43;;
9080;SDS011;13509;50.760;6.080;2022-08-01T23:45:46;7.23;;;3.73;;
9080;SDS011;13509;50.760;6.080;2022-08-01T23:48:31;6.00;;;3.93;;
9080;SDS011;13509;50.760;6.080;2022-08-01T23:51:00;3.63;;;3.33;;
9080;SDS011;13509;50.760;6.080;2022-08-01T23:53:28;4.03;;;3.63;;
9080;SDS011;13509;50.760;6.080;2022-08-01T23:55:57;4.17;;;3.77;;
9080;SDS011;13509;50.760;6.080;2022-08-01T23:58:28;4.37;;;3.23;;
